Time;durP1;ratioP1;P1;durP2;ratioP2;P2;SDS_P1;SDS_P2;PMS_P1;PMS_P2;Temp;Humidity;BMP_temperature;BMP_pressure;BME280_temperature;BME280_humidity;BME280_pressure;Samples;Min_cycle;Max_cycle;Signal;HPM_P1;HPM_P2
2023/07/25 00:01:46;;;;;;;7.00;1.45;;;;;;;;;;5066587;28;20056;-72
2023/07/25 00:04:14;;;;;;;4.70;0.88;;;;;;;;;;5067407;28;20053;-72
2023/07/25 00:06:42;;;;;;;5.55;1.20;;;;;;;;;;5068342;28;20064;-72
2023/07/25 00:09:10;;;;;;;7.72;1.02;;;;;;;;;;5068004;28;20128;-72
2023/07/25 00:11:37;;;;;;;3.38;1.00;;;;;;;;;;5061870;28;20075;-72
2023/07/25 00:14:04;;;;;;;5.63;1.10;;;;;;;;;;5065217;28;20041;-72
2023/07/25 00:16:31;;;;;;;3.75;0.90;;;;;;;;;;5066568;28;20048;-72
2023/07/25 00:18:59;;;;;;;3.40;0.90;;;;;;;;;;5067856;28;20395;-72
2023/07/25 00:21:26;;;;;;;4.82;1.00;;;;;;;;;;5068440;28;20056;-72
2023/07/25 00:23:54;;;;;;;5.03;0.70;;;;;;;;;;5067719;28;20052;-72
2023/07/25 00:26:22;;;;;;;3.25;1.10;;;;;;;;;;5069130;28;20456;-72
2023/07/25 00:28:49;;;;;;;4.40;0.85;;;;;;;;;;5066929;28;20087;-72
2023/07/25 00:31:16;;;;;;;4.03;0.77;;;;;;;;;;5068756;28;20407;-72
2023/07/25 00:33:44;;;;;;;3.55;0.90;;;;;;;;;;5057558;28;20063;-72
2023/07/25 00:36:11;;;;;;;3.83;0.73;;;;;;;;;;5068612;28;20469;-72
2023/07/25 00:38:38;;;;;;;5.30;0.80;;;;;;;;;;5067905;28;20428;-72
2023/07/25 00:41:07;;;;;;;4.32;1.00;;;;;;;;;;5067490;28;20052;-72
2023/07/25 00:43:34;;;;;;;3.22;0.90;;;;;;;;;;5066825;28;20048;-72
2023/07/25 00:46:02;;;;;;;4.30;0.80;;;;;;;;;;5066460;28;20052;-72
2023/07/25 00:48:30;;;;;;;5.63;1.15;;;;;;;;;;5067557;28;20490;-72
2023/07/25 00:50:57;;;;;;;2.92;0.93;;;;;;;;;;5067500;28;20044;-72
2023/07/25 00:53:25;;;;;;;5.57;1.02;;;;;;;;;;5067133;28;20041;-72
2023/07/25 00:55:52;;;;;;;3.17;0.80;;;;;;;;;;5054883;28;20487;-72
2023/07/25 00:58:21;;;;;;;3.38;0.90;;;;;;;;;;5066607;28;20051;-72
2023/07/25 01:00:49;;;;;;;4.05;1.10;;;;;;;;;;5068334;28;20415;-72
2023/07/25 01:03:16;;;;;;;5.95;1.10;;;;;;;;;;5071094;28;20056;-72
2023/07/25 01:05:44;;;;;;;3.50;0.90;;;;;;;;;;5070063;28;20048;-72
2023/07/25 01:08:11;;;;;;;5.38;1.05;;;;;;;;;;5031861;28;20049;-72
2023/07/25 01:10:39;;;;;;;7.68;1.45;;;;;;;;;;5030047;28;20049;-72
2023/07/25 01:13:06;;;;;;;6.03;1.30;;;;;;;;;;5033583;28;20396;-72
2023/07/25 01:15:36;;;;;;;6.43;1.33;;;;;;;;;;5036117;28;20064;-72
2023/07/25 01:18:03;;;;;;;4.28;1.15;;;;;;;;;;5031730;28;20111;-72
2023/07/25 01:20:31;;;;;;;8.85;1.27;;;;;;;;;;5030448;28;20064;-72
2023/07/25 01:22:59;;;;;;;3.67;0.93;;;;;;;;;;5024252;28;20057;-72
2023/07/25 01:25:28;;;;;;;3.75;1.00;;;;;;;;;;5030843;28;20045;-72
2023/07/25 01:27:55;;;;;;;3.45;0.90;;;;;;;;;;5031001;28;20067;-72
2023/07/25 01:30:22;;;;;;;4.63;0.98;;;;;;;;;;5031084;28;20416;-72
2023/07/25 01:32:50;;;;;;;3.58;0.90;;;;;;;;;;5031247;28;20484;-72
2023/07/25 01:35:17;;;;;;;4.95;0.70;;;;;;;;;;5031164;28;20045;-72
2023/07/25 01:37:44;;;;;;;7.93;1.10;;;;;;;;;;5024255;28;20061;-72
2023/07/25 01:40:12;;;;;;;3.40;1.23;;;;;;;;;;5030781;28;20056;-72
2023/07/25 01:42:41;;;;;;;6.57;1.08;;;;;;;;;;5030705;28;20053;-72
2023/07/25 01:45:09;;;;;;;4.63;0.80;;;;;;;;;;5027245;28;20046;-72
2023/07/25 01:47:36;;;;;;;8.35;1.10;;;;;;;;;;5029094;28;20075;-72
2023/07/25 01:50:03;;;;;;;3.25;0.80;;;;;;;;;;5027799;28;20078;-72
2023/07/25 01:52:30;;;;;;;5.25;1.08;;;;;;;;;;5031135;28;20077;-72
2023/07/25 01:54:58;;;;;;;4.43;0.85;;;;;;;;;;5029149;28;20049;-72
2023/07/25 01:57:25;;;;;;;3.95;0.90;;;;;;;;;;5031602;28;20480;-72
2023/07/25 01:59:53;;;;;;;5.30;0.63;;;;;;;;;;5029474;28;20049;-72
2023/07/25 02:02:21;;;;;;;5.50;0.68;;;;;;;;;;5030608;28;20527;-72
2023/07/25 02:04:48;;;;;;;5.05;1.00;;;;;;;;;;5029684;28;20052;-72
2023/07/25 02:07:15;;;;;;;3.50;0.90;;;;;;;;;;5055317;28;20075;-72
2023/07/25 02:09:42;;;;;;;2.72;0.93;;;;;;;;;;5070953;28;20049;-72
2023/07/25 02:12:10;;;;;;;3.17;0.73;;;;;;;;;;5069884;28;20507;-72
2023/07/25 02:14:37;;;;;;;9.50;1.45;;;;;;;;;;5070236;28;20044;-72
2023/07/25 02:17:06;;;;;;;1.38;0.65;;;;;;;;;;5069300;28;20040;-72
2023/07/25 02:19:34;;;;;;;6.78;0.75;;;;;;;;;;5070260;28;20053;-72
2023/07/25 02:22:01;;;;;;;2.55;0.65;;;;;;;;;;5076360;28;20048;-72
2023/07/25 02:24:28;;;;;;;4.78;0.70;;;;;;;;;;5070561;28;20052;-72
2023/07/25 02:26:55;;;;;;;6.80;0.85;;;;;;;;;;5069919;28;20132;-72
2023/07/25 02:29:23;;;;;;;5.80;0.90;;;;;;;;;;5069324;28;20055;-72
2023/07/25 02:31:50;;;;;;;1.85;0.80;;;;;;;;;;5069869;28;20045;-72
2023/07/25 02:34:18;;;;;;;5.60;0.75;;;;;;;;;;5067885;28;20052;-72
2023/07/25 02:36:46;;;;;;;7.57;0.95;;;;;;;;;;5062702;28;20463;-72
2023/07/25 02:39:13;;;;;;;4.40;0.77;;;;;;;;;;5051208;28;20586;-72
2023/07/25 02:41:40;;;;;;;4.80;0.77;;;;;;;;;;5069431;28;20056;-72
2023/07/25 02:44:07;;;;;;;2.55;0.63;;;;;;;;;;5064126;28;20046;-71
2023/07/25 02:46:34;;;;;;;4.43;0.80;;;;;;;;;;5061623;28;20060;-72
2023/07/25 02:49:02;;;;;;;3.33;0.98;;;;;;;;;;5053252;28;20059;-71
2023/07/25 02:51:30;;;;;;;4.18;0.95;;;;;;;;;;5066648;28;20388;-71
2023/07/25 02:53:58;;;;;;;6.78;0.60;;;;;;;;;;5062606;28;20048;-72
2023/07/25 02:56:26;;;;;;;4.82;0.80;;;;;;;;;;5068844;28;20541;-72
2023/07/25 02:58:54;;;;;;;2.40;0.85;;;;;;;;;;5068096;28;20052;-72
2023/07/25 03:01:21;;;;;;;4.03;0.98;;;;;;;;;;5068589;28;20533;-72
2023/07/25 03:03:48;;;;;;;3.00;0.93;;;;;;;;;;5069242;28;20044;-72
2023/07/25 03:06:15;;;;;;;5.25;0.93;;;;;;;;;;5070283;28;20522;-71
2023/07/25 03:08:44;;;;;;;3.83;0.80;;;;;;;;;;5069162;28;20037;-72
2023/07/25 03:11:11;;;;;;;4.78;0.82;;;;;;;;;;5069094;28;20052;-72
2023/07/25 03:13:39;;;;;;;4.75;0.90;;;;;;;;;;5069120;28;20076;-72
2023/07/25 03:16:06;;;;;;;4.85;0.90;;;;;;;;;;5068417;28;20059;-71
2023/07/25 03:18:33;;;;;;;4.40;1.10;;;;;;;;;;5069313;28;20048;-71
2023/07/25 03:21:00;;;;;;;8.30;0.88;;;;;;;;;;5051801;28;20064;-71
2023/07/25 03:23:28;;;;;;;3.63;0.80;;;;;;;;;;5067341;28;20375;-72
2023/07/25 03:25:56;;;;;;;3.92;0.85;;;;;;;;;;5068222;28;20086;-72
2023/07/25 03:28:24;;;;;;;4.78;0.98;;;;;;;;;;5065370;28;20392;-72
2023/07/25 03:30:51;;;;;;;3.50;0.70;;;;;;;;;;5068860;28;20506;-72
2023/07/25 03:33:18;;;;;;;3.70;0.70;;;;;;;;;;5066542;28;20051;-72
2023/07/25 03:35:45;;;;;;;3.25;0.82;;;;;;;;;;5050213;28;20498;-72
2023/07/25 03:38:12;;;;;;;6.95;1.10;;;;;;;;;;5067620;28;20048;-72
2023/07/25 03:40:40;;;;;;;3.80;0.68;;;;;;;;;;5068570;28;20414;-72
2023/07/25 03:43:08;;;;;;;4.10;0.93;;;;;;;;;;5068373;28;20045;-72
2023/07/25 03:45:35;;;;;;;5.30;0.82;;;;;;;;;;5068666;28;20048;-72
2023/07/25 03:48:03;;;;;;;1.80;0.52;;;;;;;;;;5068250;28;20479;-71
2023/07/25 03:50:30;;;;;;;2.75;0.63;;;;;;;;;;5068638;28;20044;-72
2023/07/25 03:52:58;;;;;;;3.55;0.70;;;;;;;;;;5066635;28;20054;-72
2023/07/25 03:55:25;;;;;;;3.42;0.70;;;;;;;;;;5068626;28;20412;-71
2023/07/25 03:57:53;;;;;;;2.75;0.50;;;;;;;;;;5067768;28;20056;-72
2023/07/25 04:00:21;;;;;;;2.75;0.55;;;;;;;;;;5067766;28;20407;-72
2023/07/25 04:02:49;;;;;;;4.25;0.73;;;;;;;;;;5068359;28;20484;-71
2023/07/25 04:05:16;;;;;;;6.25;0.73;;;;;;;;;;5072810;28;20056;-71
2023/07/25 04:07:43;;;;;;;3.00;0.60;;;;;;;;;;5068757;28;20061;-71
2023/07/25 04:10:11;;;;;;;5.03;0.82;;;;;;;;;;5067747;28;20064;-71
2023/07/25 04:12:38;;;;;;;6.13;1.33;;;;;;;;;;5068458;28;20045;-72
2023/07/25 04:15:05;;;;;;;4.75;0.80;;;;;;;;;;5068442;28;20044;-72
2023/07/25 04:17:34;;;;;;;3.78;0.63;;;;;;;;;;5067276;28;20807;-72
2023/07/25 04:20:01;;;;;;;4.47;1.35;;;;;;;;;;5066875;28;20496;-72
2023/07/25 04:22:29;;;;;;;4.55;0.73;;;;;;;;;;5068971;28;20071;-72
2023/07/25 04:24:56;;;;;;;5.25;0.63;;;;;;;;;;5068023;28;20052;-72
2023/07/25 04:27:23;;;;;;;3.45;0.55;;;;;;;;;;5066619;28;20044;-72
2023/07/25 04:29:50;;;;;;;5.45;0.93;;;;;;;;;;5066378;28;20048;-72
2023/07/25 04:32:17;;;;;;;4.43;0.80;;;;;;;;;;5067955;28;20055;-72
2023/07/25 04:34:46;;;;;;;3.05;0.70;;;;;;;;;;5067154;28;20052;-72
2023/07/25 04:37:13;;;;;;;5.32;0.70;;;;;;;;;;5071246;28;20127;-72
2023/07/25 04:39:40;;;;;;;0.95;0.35;;;;;;;;;;5071038;28;20487;-72
2023/07/25 04:42:08;;;;;;;2.03;0.50;;;;;;;;;;5068653;28;20048;-72
2023/07/25 04:44:35;;;;;;;9.35;0.80;;;;;;;;;;5069127;28;20059;-72
2023/07/25 04:47:02;;;;;;;4.65;0.60;;;;;;;;;;5072601;28;20044;-72
2023/07/25 04:49:30;;;;;;;2.80;0.52;;;;;;;;;;5070616;28;20395;-72
2023/07/25 04:51:58;;;;;;;5.68;0.38;;;;;;;;;;5071458;28;20044;-72
2023/07/25 04:54:25;;;;;;;2.33;0.45;;;;;;;;;;5070348;28;20052;-72
2023/07/25 04:56:53;;;;;;;5.88;0.70;;;;;;;;;;5070786;28;20091;-72
2023/07/25 04:59:20;;;;;;;4.82;0.60;;;;;;;;;;5071883;28;20055;-72
2023/07/25 05:01:47;;;;;;;2.53;0.43;;;;;;;;;;5071118;28;20097;-72
2023/07/25 05:04:14;;;;;;;2.80;0.52;;;;;;;;;;5070648;28;20151;-72
2023/07/25 05:06:42;;;;;;;2.95;0.50;;;;;;;;;;5070676;28;20065;-72
2023/07/25 05:09:10;;;;;;;3.90;0.45;;;;;;;;;;5070782;28;20068;-72
2023/07/25 05:11:37;;;;;;;1.80;0.38;;;;;;;;;;5070778;28;20049;-72
2023/07/25 05:14:05;;;;;;;6.47;0.63;;;;;;;;;;5066384;28;20483;-72
2023/07/25 05:16:32;;;;;;;4.05;0.40;;;;;;;;;;5070213;28;20048;-71
2023/07/25 05:18:59;;;;;;;3.67;0.70;;;;;;;;;;5070051;28;20044;-72
2023/07/25 05:21:26;;;;;;;6.35;0.50;;;;;;;;;;5069648;28;20052;-72
2023/07/25 05:23:55;;;;;;;0.80;0.40;;;;;;;;;;5070171;28;20844;-71
2023/07/25 05:26:23;;;;;;;3.13;0.32;;;;;;;;;;5071249;28;20052;-72
2023/07/25 05:28:51;;;;;;;2.35;0.40;;;;;;;;;;5069338;28;20044;-71
2023/07/25 05:31:18;;;;;;;2.88;0.55;;;;;;;;;;5070378;28;20048;-71
2023/07/25 05:33:45;;;;;;;3.95;0.32;;;;;;;;;;5069178;28;20076;-71
2023/07/25 05:36:12;;;;;;;2.92;0.40;;;;;;;;;;5070340;28;20060;-71
2023/07/25 05:38:40;;;;;;;2.38;0.98;;;;;;;;;;5069996;28;20049;-71
2023/07/25 05:41:07;;;;;;;3.90;0.65;;;;;;;;;;5070387;28;20052;-72
2023/07/25 05:43:36;;;;;;;1.60;0.40;;;;;;;;;;5070955;28;20441;-71
2023/07/25 05:46:03;;;;;;;1.33;0.30;;;;;;;;;;5070261;28;20053;-72
2023/07/25 05:48:31;;;;;;;2.83;0.47;;;;;;;;;;5055875;28;20147;-71
2023/07/25 05:50:58;;;;;;;2.97;0.47;;;;;;;;;;5070087;28;20399;-71
2023/07/25 05:53:25;;;;;;;1.65;0.30;;;;;;;;;;5070190;28;20044;-71
2023/07/25 05:55:52;;;;;;;0.70;0.30;;;;;;;;;;5070539;28;20749;-71
2023/07/25 05:58:20;;;;;;;1.75;0.50;;;;;;;;;;5070537;28;20403;-71
2023/07/25 06:00:49;;;;;;;1.70;0.30;;;;;;;;;;5067555;28;20052;-71
2023/07/25 06:03:17;;;;;;;5.22;0.30;;;;;;;;;;5069490;28;20495;-71
2023/07/25 06:05:44;;;;;;;4.75;0.60;;;;;;;;;;5068758;28;20506;-71
2023/07/25 06:08:11;;;;;;;4.40;0.82;;;;;;;;;;5070984;28;20057;-71
2023/07/25 06:10:39;;;;;;;4.28;0.22;;;;;;;;;;5065754;28;20049;-71
2023/07/25 06:13:06;;;;;;;2.75;0.45;;;;;;;;;;5070693;28;20040;-71
2023/07/25 06:15:34;;;;;;;3.55;0.47;;;;;;;;;;5066697;28;20049;-72
2023/07/25 06:18:04;;;;;;;1.35;0.35;;;;;;;;;;5066447;28;20052;-71
2023/07/25 06:20:31;;;;;;;2.03;0.40;;;;;;;;;;5069796;28;20055;-71
2023/07/25 06:22:59;;;;;;;2.50;0.30;;;;;;;;;;5069994;28;20453;-71
2023/07/25 06:25:26;;;;;;;1.45;0.30;;;;;;;;;;5069854;28;20056;-71
2023/07/25 06:27:54;;;;;;;4.35;0.55;;;;;;;;;;5069134;28;21124;-71
2023/07/25 06:30:21;;;;;;;2.47;0.30;;;;;;;;;;5070186;28;20052;-71
2023/07/25 06:32:48;;;;;;;1.17;0.28;;;;;;;;;;5068726;28;20170;-71
2023/07/25 06:35:17;;;;;;;1.50;0.50;;;;;;;;;;5069115;28;20052;-71
2023/07/25 06:37:44;;;;;;;1.98;0.30;;;;;;;;;;5066109;28;20040;-71
2023/07/25 06:40:12;;;;;;;3.25;0.30;;;;;;;;;;5069970;28;20076;-71
2023/07/25 06:42:39;;;;;;;1.25;0.30;;;;;;;;;;5067685;28;20048;-71
2023/07/25 06:45:07;;;;;;;3.47;0.40;;;;;;;;;;5069750;28;20075;-71
2023/07/25 06:47:34;;;;;;;3.08;0.57;;;;;;;;;;5069063;28;20056;-71
2023/07/25 06:50:02;;;;;;;0.93;0.40;;;;;;;;;;5069536;28;20041;-71
2023/07/25 06:52:30;;;;;;;2.58;0.50;;;;;;;;;;5070852;28;20051;-71
2023/07/25 06:54:59;;;;;;;1.05;0.40;;;;;;;;;;5049973;28;20052;-71
2023/07/25 06:57:28;;;;;;;2.50;0.32;;;;;;;;;;5067233;28;20044;-71
2023/07/25 06:59:55;;;;;;;5.25;0.30;;;;;;;;;;5068109;28;20055;-71
2023/07/25 07:02:22;;;;;;;1.60;0.50;;;;;;;;;;5067177;28;20086;-71
2023/07/25 07:04:50;;;;;;;3.25;0.32;;;;;;;;;;5068712;28;20055;-71
2023/07/25 07:07:17;;;;;;;2.95;0.55;;;;;;;;;;5069131;28;20059;-71
2023/07/25 07:09:46;;;;;;;3.50;0.85;;;;;;;;;;5068610;28;20052;-71
2023/07/25 07:12:14;;;;;;;3.63;0.50;;;;;;;;;;5067769;28;20063;-71
2023/07/25 07:14:41;;;;;;;3.67;0.40;;;;;;;;;;5068861;28;20079;-71
2023/07/25 07:17:08;;;;;;;0.30;0.22;;;;;;;;;;5068769;28;20048;-71
2023/07/25 07:19:35;;;;;;;0.82;0.40;;;;;;;;;;5067746;28;20059;-71
2023/07/25 07:22:03;;;;;;;0.73;0.30;;;;;;;;;;5068045;28;20056;-71
2023/07/25 07:24:30;;;;;;;1.33;0.40;;;;;;;;;;5068456;28;20055;-71
2023/07/25 07:26:58;;;;;;;2.95;0.47;;;;;;;;;;5067298;28;20056;-71
2023/07/25 07:29:26;;;;;;;2.08;0.50;;;;;;;;;;5068781;28;20044;-71
2023/07/25 07:31:53;;;;;;;2.72;0.38;;;;;;;;;;5052091;28;20062;-71
2023/07/25 07:34:20;;;;;;;3.70;0.40;;;;;;;;;;5068522;28;20071;-71
2023/07/25 07:36:48;;;;;;;2.47;0.40;;;;;;;;;;5067264;28;20049;-71
2023/07/25 07:39:15;;;;;;;2.22;0.38;;;;;;;;;;5068847;28;20044;-71
2023/07/25 07:41:42;;;;;;;3.92;0.43;;;;;;;;;;5066233;28;20252;-71
2023/07/25 07:44:11;;;;;;;3.83;0.40;;;;;;;;;;5063135;28;20045;-71
2023/07/25 07:46:38;;;;;;;3.97;0.60;;;;;;;;;;5067833;28;20048;-70
2023/07/25 07:49:05;;;;;;;1.25;0.30;;;;;;;;;;5054218;28;20402;-71
2023/07/25 07:51:32;;;;;;;3.40;0.60;;;;;;;;;;5068555;28;20048;-71
2023/07/25 07:54:00;;;;;;;2.83;0.73;;;;;;;;;;5067748;28;20115;-71
2023/07/25 07:56:27;;;;;;;2.65;0.60;;;;;;;;;;5068594;28;20045;-71
2023/07/25 07:58:54;;;;;;;1.23;0.30;;;;;;;;;;5067240;28;20044;-71
2023/07/25 08:01:23;;;;;;;3.70;0.40;;;;;;;;;;5068714;28;20045;-71
2023/07/25 08:03:51;;;;;;;1.90;0.38;;;;;;;;;;5067431;28;20045;-71
2023/07/25 08:06:18;;;;;;;2.17;0.45;;;;;;;;;;5070498;28;20415;-71
2023/07/25 08:08:46;;;;;;;1.02;0.30;;;;;;;;;;5068641;28;20116;-71
2023/07/25 08:11:13;;;;;;;3.63;0.90;;;;;;;;;;5069243;28;20633;-71
2023/07/25 08:13:40;;;;;;;6.10;0.65;;;;;;;;;;5067307;28;20056;-70
2023/07/25 08:16:07;;;;;;;1.77;0.50;;;;;;;;;;5068567;28;20052;-71
2023/07/25 08:18:36;;;;;;;3.33;0.50;;;;;;;;;;5067928;28;20061;-71
2023/07/25 08:21:03;;;;;;;0.65;0.35;;;;;;;;;;5065803;28;20051;-71
2023/07/25 08:23:31;;;;;;;2.53;0.60;;;;;;;;;;5067253;28;20059;-71
2023/07/25 08:25:58;;;;;;;0.77;0.40;;;;;;;;;;5068445;28;20081;-71
2023/07/25 08:28:26;;;;;;;4.80;0.50;;;;;;;;;;5067811;28;20436;-71
2023/07/25 08:30:59;;;;;;;3.05;0.47;;;;;;;;;;5068504;28;20135;-71
2023/07/25 08:33:27;;;;;;;3.17;0.50;;;;;;;;;;5066240;28;20113;-71
2023/07/25 08:35:55;;;;;;;2.53;0.30;;;;;;;;;;5068046;28;20095;-70
2023/07/25 08:38:23;;;;;;;3.17;0.85;;;;;;;;;;5067696;28;20517;-71
2023/07/25 08:40:55;;;;;;;5.78;0.40;;;;;;;;;;5067720;28;20044;-71
2023/07/25 08:43:23;;;;;;;4.55;0.60;;;;;;;;;;5051653;28;20048;-71
2023/07/25 08:45:51;;;;;;;3.00;0.50;;;;;;;;;;5069804;28;20057;-71
2023/07/25 08:48:19;;;;;;;1.15;0.40;;;;;;;;;;5067238;28;20048;-71
2023/07/25 08:50:47;;;;;;;2.17;0.40;;;;;;;;;;5066619;28;20072;-71
2023/07/25 08:53:17;;;;;;;1.60;0.50;;;;;;;;;;5067450;28;20051;-71
2023/07/25 08:55:44;;;;;;;3.08;0.50;;;;;;;;;;5066848;28;20083;-71
2023/07/25 08:58:12;;;;;;;3.08;0.50;;;;;;;;;;5068030;28;20656;-71
2023/07/25 09:00:39;;;;;;;2.72;0.60;;;;;;;;;;5066733;28;20056;-71
2023/07/25 09:03:06;;;;;;;0.98;0.40;;;;;;;;;;5067749;28;20045;-71
2023/07/25 09:05:34;;;;;;;2.50;0.30;;;;;;;;;;5068004;28;20060;-71
2023/07/25 09:08:02;;;;;;;1.05;0.30;;;;;;;;;;5066055;28;20048;-71
2023/07/25 09:10:31;;;;;;;1.23;0.40;;;;;;;;;;5064624;28;20066;-71
2023/07/25 09:12:58;;;;;;;0.95;0.38;;;;;;;;;;5068587;28;20079;-71
2023/07/25 09:15:25;;;;;;;0.50;0.30;;;;;;;;;;5067820;28;20045;-71
2023/07/25 09:17:53;;;;;;;2.40;0.30;;;;;;;;;;5068274;28;20772;-71
2023/07/25 09:20:21;;;;;;;1.35;0.30;;;;;;;;;;5067692;28;20040;-71
2023/07/25 09:22:49;;;;;;;0.90;0.30;;;;;;;;;;5067931;28;20484;-71
2023/07/25 09:25:16;;;;;;;1.70;0.50;;;;;;;;;;5071152;28;20090;-71
2023/07/25 09:27:46;;;;;;;4.03;0.60;;;;;;;;;;5070658;28;20053;-71
2023/07/25 09:30:16;;;;;;;2.28;0.50;;;;;;;;;;5055401;28;20105;-71
2023/07/25 09:32:47;;;;;;;3.38;0.68;;;;;;;;;;5068516;28;20402;-71
2023/07/25 09:35:15;;;;;;;1.00;0.60;;;;;;;;;;5070254;28;20072;-71
2023/07/25 09:37:42;;;;;;;4.78;0.43;;;;;;;;;;5069970;28;20044;-71
2023/07/25 09:40:10;;;;;;;1.55;0.50;;;;;;;;;;5070006;28;20109;-71
2023/07/25 09:42:41;;;;;;;1.88;0.70;;;;;;;;;;5057039;28;20052;-71
2023/07/25 09:45:10;;;;;;;1.45;0.30;;;;;;;;;;5070387;28;20049;-72
2023/07/25 09:47:38;;;;;;;1.60;0.52;;;;;;;;;;5052802;28;20051;-72
2023/07/25 09:50:06;;;;;;;1.60;0.40;;;;;;;;;;5070818;28;20045;-72
2023/07/25 09:52:39;;;;;;;1.00;0.35;;;;;;;;;;5070695;28;20084;-72
2023/07/25 09:55:07;;;;;;;3.67;0.47;;;;;;;;;;5065673;28;20068;-72
2023/07/25 09:57:34;;;;;;;1.98;0.50;;;;;;;;;;5070079;28;20052;-71
2023/07/25 10:00:02;;;;;;;3.15;0.40;;;;;;;;;;5066000;28;20037;-72
2023/07/25 10:02:31;;;;;;;2.30;0.50;;;;;;;;;;5070032;28;20099;-72
2023/07/25 10:04:59;;;;;;;3.13;0.40;;;;;;;;;;5067296;28;20048;-71
2023/07/25 10:07:27;;;;;;;3.10;0.50;;;;;;;;;;5068757;28;20056;-71
2023/07/25 10:09:54;;;;;;;2.28;0.35;;;;;;;;;;5070607;28;20499;-72
2023/07/25 10:12:21;;;;;;;2.47;0.60;;;;;;;;;;5069697;28;20044;-71
2023/07/25 10:14:49;;;;;;;2.05;0.45;;;;;;;;;;5070133;28;20045;-71
2023/07/25 10:17:16;;;;;;;3.17;0.60;;;;;;;;;;5069516;28;20995;-71
2023/07/25 10:19:49;;;;;;;2.10;0.40;;;;;;;;;;5056155;28;20056;-72
2023/07/25 10:22:16;;;;;;;1.90;0.40;;;;;;;;;;5057551;28;20053;-72
2023/07/25 10:24:44;;;;;;;1.48;0.40;;;;;;;;;;5069564;28;20063;-72
2023/07/25 10:27:13;;;;;;;2.47;0.40;;;;;;;;;;5067062;28;20048;-71
2023/07/25 10:29:42;;;;;;;4.32;0.47;;;;;;;;;;5069185;28;20059;-72
2023/07/25 10:32:10;;;;;;;1.38;0.40;;;;;;;;;;5069694;28;20525;-72
2023/07/25 10:34:52;;;;;;;2.83;0.40;;;;;;;;;;5067917;28;20063;-72
2023/07/25 10:37:29;;;;;;;1.27;0.40;;;;;;;;;;5068867;28;20406;-71
2023/07/25 10:40:03;;;;;;;2.10;0.60;;;;;;;;;;5065126;28;20057;-71
2023/07/25 10:42:36;;;;;;;4.00;0.73;;;;;;;;;;5057753;28;20083;-72
2023/07/25 10:45:04;;;;;;;3.78;0.47;;;;;;;;;;5069319;28;20048;-72
2023/07/25 10:47:43;;;;;;;3.45;0.60;;;;;;;;;;5067454;28;20048;-71
2023/07/25 10:50:12;;;;;;;1.58;0.40;;;;;;;;;;5063553;28;20045;-72
2023/07/25 10:52:43;;;;;;;0.47;0.22;;;;;;;;;;5056017;28;20057;-72
2023/07/25 10:55:11;;;;;;;3.60;0.40;;;;;;;;;;5068343;28;20460;-71
2023/07/25 10:57:38;;;;;;;3.05;0.40;;;;;;;;;;5069791;28;20053;-72
2023/07/25 11:00:08;;;;;;;4.22;0.77;;;;;;;;;;5069341;28;20052;-71
2023/07/25 11:02:37;;;;;;;1.55;0.50;;;;;;;;;;5069646;28;20107;-72
2023/07/25 11:05:24;;;;;;;1.00;0.50;;;;;;;;;;5069705;28;20071;-72
2023/07/25 11:07:53;;;;;;;2.95;0.55;;;;;;;;;;5067235;28;20056;-72
2023/07/25 11:10:21;;;;;;;1.83;0.60;;;;;;;;;;5068674;28;20051;-72
2023/07/25 11:12:52;;;;;;;3.67;0.70;;;;;;;;;;5070255;28;20052;-71
2023/07/25 11:15:20;;;;;;;3.75;0.50;;;;;;;;;;5067313;28;20479;-72
2023/07/25 11:17:48;;;;;;;4.78;0.60;;;;;;;;;;5066769;28;20491;-72
2023/07/25 11:20:16;;;;;;;2.10;0.40;;;;;;;;;;5053309;28;20083;-72
2023/07/25 11:22:44;;;;;;;0.50;0.32;;;;;;;;;;5066167;28;20495;-72
2023/07/25 11:25:12;;;;;;;2.38;0.63;;;;;;;;;;5067851;28;20052;-72
2023/07/25 11:27:43;;;;;;;3.28;0.70;;;;;;;;;;5068180;28;20103;-72
2023/07/25 11:30:14;;;;;;;2.50;0.60;;;;;;;;;;5067899;28;20083;-72
2023/07/25 11:32:47;;;;;;;2.88;0.47;;;;;;;;;;5061598;28;20427;-71
2023/07/25 11:35:15;;;;;;;2.47;0.60;;;;;;;;;;5068512;28;20049;-71
2023/07/25 11:37:43;;;;;;;2.15;0.70;;;;;;;;;;5067767;28;20126;-72
2023/07/25 11:40:16;;;;;;;2.92;0.50;;;;;;;;;;5068637;28;20135;-72
2023/07/25 11:42:44;;;;;;;1.75;0.60;;;;;;;;;;5059118;28;20052;-72
2023/07/25 11:45:11;;;;;;;1.85;0.60;;;;;;;;;;5068598;28;20064;-72
2023/07/25 11:47:40;;;;;;;1.45;0.50;;;;;;;;;;5066363;28;20091;-72
2023/07/25 11:50:08;;;;;;;1.80;0.40;;;;;;;;;;5063485;28;20060;-72
2023/07/25 11:52:36;;;;;;;5.80;0.50;;;;;;;;;;5066891;28;20119;-72
2023/07/25 11:55:04;;;;;;;3.72;0.40;;;;;;;;;;5068472;28;20094;-72
2023/07/25 11:57:33;;;;;;;0.73;0.40;;;;;;;;;;5050656;28;20054;-72
2023/07/25 12:00:00;;;;;;;1.00;0.45;;;;;;;;;;5068162;28;20193;-72
2023/07/25 12:02:28;;;;;;;2.78;0.60;;;;;;;;;;5065645;28;20088;-72
2023/07/25 12:04:55;;;;;;;3.13;0.50;;;;;;;;;;5068017;28;20392;-72
2023/07/25 12:07:22;;;;;;;1.95;0.82;;;;;;;;;;5070078;28;20054;-72
2023/07/25 12:09:51;;;;;;;1.48;0.40;;;;;;;;;;5068338;28;20074;-72
2023/07/25 12:12:18;;;;;;;1.83;0.40;;;;;;;;;;5067814;28;20040;-72
2023/07/25 12:14:56;;;;;;;2.55;0.40;;;;;;;;;;5067420;28;20052;-72
2023/07/25 12:17:23;;;;;;;2.80;0.60;;;;;;;;;;5066809;28;20044;-72
2023/07/25 12:19:54;;;;;;;2.35;0.60;;;;;;;;;;5068161;28;20055;-72
2023/07/25 12:22:21;;;;;;;2.78;0.50;;;;;;;;;;5066681;28;20330;-72
2023/07/25 12:24:48;;;;;;;1.40;0.68;;;;;;;;;;5067345;28;20415;-72
2023/07/25 12:27:16;;;;;;;1.95;0.55;;;;;;;;;;5066994;28;20044;-72
2023/07/25 12:29:44;;;;;;;3.83;0.50;;;;;;;;;;5067271;28;20044;-72
2023/07/25 12:32:13;;;;;;;1.05;0.40;;;;;;;;;;5067031;28;20123;-72
2023/07/25 12:34:40;;;;;;;1.35;0.47;;;;;;;;;;5053218;28;20075;-72
2023/07/25 12:37:07;;;;;;;2.55;0.43;;;;;;;;;;5067815;28;20040;-71
2023/07/25 12:39:36;;;;;;;1.25;0.40;;;;;;;;;;5066892;28;20492;-71
2023/07/25 12:42:03;;;;;;;0.60;0.40;;;;;;;;;;5068052;28;20048;-72
2023/07/25 12:44:30;;;;;;;1.60;0.47;;;;;;;;;;5064159;28;20069;-72
2023/07/25 12:46:58;;;;;;;0.75;0.40;;;;;;;;;;5067746;28;20164;-72
2023/07/25 12:49:27;;;;;;;0.80;0.47;;;;;;;;;;5056309;28;20045;-72
2023/07/25 12:51:54;;;;;;;1.75;0.60;;;;;;;;;;5067043;28;20102;-72
2023/07/25 12:54:21;;;;;;;1.85;0.52;;;;;;;;;;5067743;28;20119;-72
2023/07/25 12:56:49;;;;;;;0.93;0.40;;;;;;;;;;5067391;28;20070;-72
2023/07/25 12:59:16;;;;;;;2.35;0.60;;;;;;;;;;5068610;28;20051;-72
2023/07/25 13:01:43;;;;;;;0.95;0.50;;;;;;;;;;5068435;28;20080;-73
2023/07/25 13:04:10;;;;;;;2.45;0.70;;;;;;;;;;5070242;28;20415;-73
2023/07/25 13:06:39;;;;;;;2.90;0.80;;;;;;;;;;5070507;28;20071;-72
2023/07/25 13:09:06;;;;;;;2.03;0.80;;;;;;;;;;5070320;28;20177;-72
2023/07/25 13:11:34;;;;;;;1.45;0.80;;;;;;;;;;5074163;28;20041;-69
2023/07/25 13:14:01;;;;;;;1.48;0.77;;;;;;;;;;5068971;28;20131;-70
2023/07/25 13:16:28;;;;;;;1.55;0.60;;;;;;;;;;5071799;28;20071;-70
2023/07/25 13:18:56;;;;;;;2.63;0.90;;;;;;;;;;5070535;28;20167;-70
2023/07/25 13:21:23;;;;;;;1.55;0.60;;;;;;;;;;5069442;28;20044;-70
2023/07/25 13:23:52;;;;;;;1.67;0.60;;;;;;;;;;5054014;28;20048;-70
2023/07/25 13:26:19;;;;;;;3.30;0.93;;;;;;;;;;5070821;28;20040;-70
2023/07/25 13:28:46;;;;;;;1.35;0.80;;;;;;;;;;5069069;28;20495;-70
2023/07/25 13:31:13;;;;;;;2.45;0.80;;;;;;;;;;5071607;28;20479;-70
2023/07/25 13:33:41;;;;;;;1.80;0.80;;;;;;;;;;5069338;28;20419;-70
2023/07/25 13:36:08;;;;;;;2.30;0.80;;;;;;;;;;5070768;28;20368;-70
2023/07/25 13:38:35;;;;;;;2.22;0.80;;;;;;;;;;5069615;28;20067;-70
2023/07/25 13:41:04;;;;;;;2.72;0.82;;;;;;;;;;5068744;28;20128;-70
2023/07/25 13:43:31;;;;;;;3.47;0.80;;;;;;;;;;5070758;28;21283;-69
2023/07/25 13:45:58;;;;;;;2.95;0.70;;;;;;;;;;5067854;28;20044;-69
2023/07/25 13:48:26;;;;;;;2.72;0.73;;;;;;;;;;5069551;28;20048;-70
2023/07/25 13:50:53;;;;;;;1.52;0.60;;;;;;;;;;5066730;28;20041;-69
2023/07/25 13:53:20;;;;;;;3.03;0.70;;;;;;;;;;5069279;28;20053;-70
2023/07/25 13:55:47;;;;;;;1.80;0.70;;;;;;;;;;5064759;28;20044;-70
2023/07/25 13:58:16;;;;;;;2.50;0.70;;;;;;;;;;5070907;28;20399;-69
2023/07/25 14:00:43;;;;;;;2.60;0.70;;;;;;;;;;5069198;28;20048;-70
2023/07/25 14:03:11;;;;;;;2.33;0.60;;;;;;;;;;5067797;28;20047;-70
2023/07/25 14:05:38;;;;;;;1.50;1.00;;;;;;;;;;5069340;28;20045;-70
2023/07/25 14:08:07;;;;;;;0.93;0.60;;;;;;;;;;5069490;28;20080;-70
2023/07/25 14:10:34;;;;;;;1.23;0.65;;;;;;;;;;5069164;28;20142;-69
2023/07/25 14:13:01;;;;;;;1.35;0.60;;;;;;;;;;5069072;28;20045;-69
2023/07/25 14:15:31;;;;;;;1.48;0.63;;;;;;;;;;5059096;28;20059;-69
2023/07/25 14:17:58;;;;;;;1.30;0.57;;;;;;;;;;5070054;28;20057;-70
2023/07/25 14:20:26;;;;;;;0.90;0.68;;;;;;;;;;5069128;28;20044;-70
2023/07/25 14:22:53;;;;;;;1.63;0.70;;;;;;;;;;5069131;28;20048;-70
2023/07/25 14:25:20;;;;;;;3.72;0.73;;;;;;;;;;5068701;28;20048;-70
2023/07/25 14:27:48;;;;;;;2.00;0.75;;;;;;;;;;5067678;28;20083;-70
2023/07/25 14:30:16;;;;;;;2.92;0.90;;;;;;;;;;5068781;28;20052;-70
2023/07/25 14:32:45;;;;;;;1.85;0.60;;;;;;;;;;5069653;28;20137;-70
2023/07/25 14:35:12;;;;;;;2.58;0.73;;;;;;;;;;5068031;28;20513;-70
2023/07/25 14:37:40;;;;;;;1.52;0.68;;;;;;;;;;5069490;28;20167;-70
2023/07/25 14:40:08;;;;;;;1.65;0.73;;;;;;;;;;5067731;28;20076;-70
2023/07/25 14:42:35;;;;;;;2.03;0.73;;;;;;;;;;5069178;28;20063;-69
2023/07/25 14:45:03;;;;;;;1.33;0.60;;;;;;;;;;5069370;28;20055;-70
2023/07/25 14:47:30;;;;;;;2.15;0.70;;;;;;;;;;5068170;28;20406;-70